Flag for USA

Past Weather in 47°26'36.5"N, 100°28'16.8"W, USA — Yesterday and Last 2 Weeks

Currently: 81 °F. Sunny. (Weather station: Bismarck Municipal Airport, USA). See more current weather

Past Weather in 47°26'36.5"N, 100°28'16.8"W — Graph

°F

47°26'36.5"N, 100°28'16.8"W Temperature Yesterday

Maximum temperature yesterday: 90 °F (at 4:52 pm)
Minimum temperature yesterday: 65 °F (at 4:52 am)
Average temperature yesterday: 76 °F

High & Low Weather Summary for the Past Weeks

 TemperatureHumidityPressure
High93 °F (Jul 12, 5:52 pm)100% (Jul 22, 4:52 am)30.23 "Hg (Jul 22, 4:52 am)
Low54 °F (Jul 17, 5:52 am)34% (Jul 15, 3:52 pm)29.71 "Hg (Jul 14, 11:52 pm)
Average75 °F68%30.00 "Hg
* Reported Jul 10 10:52 am — Jul 25 10:02 am, 47°26'36.5"N, 100°28'16.8"W. Weather by CustomWeather, © 2024

Note: Actual official high and low records may vary slightly from our data, if they occured in-between our weather recording intervals... More about our weather records

47°26'36.5"N, 100°28'16.8"W Weather History for the Previous 24 Hours

Scroll right to see more
 ConditionsComfort  
Time TempWeatherWind HumidityBarometerVisibility
10:02 am
Thu, Jul 25
77 °FPassing clouds.15 mph77%29.99 "Hg7 mi
8:52 am74 °FScattered clouds.13 mph85%29.98 "Hg6 mi
8:09 am72 °FFog.12 mph91%30.02 "Hg5 mi
7:52 am71 °FFog.8 mph93%29.98 "Hg5 mi
7:09 am70 °FFog.9 mph97%30.01 "Hg4 mi
6:52 am70 °FFog.9 mph97%29.97 "Hg4 mi
5:52 am70 °FFog.9 mph93%29.98 "Hg5 mi
4:52 am72 °FClear.8 mph91%29.98 "Hg7 mi
3:52 am73 °FClear.9 mph88%29.98 "Hg8 mi
2:52 am73 °FClear.15 mph90%29.98 "Hg8 mi
1:52 am74 °FClear.14 mph88%29.99 "Hg8 mi
12:52 am74 °FClear.12 mph88%30.01 "Hg8 mi
11:52 pm
Wed, Jul 24
74 °FClear.9 mph88%30.01 "Hg8 mi
10:52 pm77 °FClear.12 mph77%30.01 "Hg9 mi
9:52 pm77 °FClear.9 mph79%30.01 "Hg9 mi
8:52 pm81 °FSunny.10 mph69%30.01 "Hg8 mi
7:52 pm85 °FSunny.15 mph59%30.02 "Hg8 mi
6:52 pm87 °FSunny.15 mph51%30.03 "Hg8 mi
5:52 pm88 °FSunny.20 mph50%30.02 "Hg8 mi
4:52 pm90 °FSunny.17 mph48%30.03 "Hg9 mi
3:52 pm88 °FSunny.16 mph52%30.04 "Hg9 mi
2:52 pm88 °FSunny.18 mph52%30.05 "Hg9 mi
1:52 pm85 °FSunny.15 mph57%30.07 "Hg9 mi
12:52 pm84 °FSunny.12 mph59%30.08 "Hg9 mi
11:52 am82 °FSunny.14 mph60%30.09 "Hg9 mi
Weather by CustomWeather, © 2024

See weather overview